Time;durP1;ratioP1;P1;durP2;ratioP2;P2;SDS_P1;SDS_P2;PMS_P1;PMS_P2;Temp;Humidity;BMP_temperature;BMP_pressure;BME280_temperature;BME280_humidity;BME280_pressure;Samples;Min_cycle;Max_cycle;Signal;HPM_P1;HPM_P2
2022/09/16 00:01:31;;;;;;;0.77;0.77;;;;;;;17.20;79.71;98746.22;4994113;28;20500;-68
2022/09/16 00:04:00;;;;;;;0.50;0.50;;;;;;;17.15;79.58;98744.75;4994387;28;20039;-68
2022/09/16 00:06:29;;;;;;;0.70;0.70;;;;;;;17.08;78.95;98731.28;4997692;28;20068;-68
2022/09/16 00:09:01;;;;;;;0.73;0.73;;;;;;;17.00;78.63;98753.97;4998718;28;20129;-68
2022/09/16 00:11:34;;;;;;;1.25;1.15;;;;;;;16.92;78.52;98755.16;4998457;28;20043;-68
2022/09/16 00:14:03;;;;;;;1.02;0.93;;;;;;;16.87;78.02;98752.78;4998288;28;20121;-68
2022/09/16 00:16:32;;;;;;;1.40;1.02;;;;;;;16.87;77.43;98746.81;4998311;28;20081;-67
2022/09/16 00:19:02;;;;;;;1.13;1.02;;;;;;;16.88;76.99;98743.31;4998190;28;20223;-68
2022/09/16 00:21:31;;;;;;;1.05;0.98;;;;;;;16.81;76.13;98742.75;4998208;28;20511;-68
2022/09/16 00:24:00;;;;;;;;;;;;;;;16.80;75.88;98751.34;4998520;28;20129;-68
2022/09/16 00:26:28;;;;;;;0.77;0.77;;;;;;;16.79;75.28;98747.13;4998124;28;20036;-68
2022/09/16 00:28:58;;;;;;;1.30;0.98;;;;;;;16.75;74.68;98753.28;4997764;28;20496;-67
2022/09/16 00:31:27;;;;;;;0.80;0.68;;;;;;;16.71;74.49;98742.28;4997738;28;20518;-69
2022/09/16 00:33:56;;;;;;;2.13;1.17;;;;;;;16.66;73.97;98740.78;4980516;28;20046;-68
2022/09/16 00:36:24;;;;;;;0.60;0.60;;;;;;;16.63;74.27;98738.31;4998665;28;20042;-68
2022/09/16 00:38:54;;;;;;;0.50;0.50;;;;;;;16.63;73.93;98743.47;4998336;28;20062;-69
2022/09/16 00:41:26;;;;;;;1.10;1.02;;;;;;;16.60;73.77;98743.63;4997594;28;20047;-68
2022/09/16 00:43:59;;;;;;;0.80;0.80;;;;;;;16.58;73.59;98740.25;4997479;28;20062;-67
2022/09/16 00:46:35;;;;;;;0.75;0.73;;;;;;;16.56;73.72;98747.19;4997458;28;20129;-67
2022/09/16 00:49:10;;;;;;;0.55;0.55;;;;;;;16.58;73.84;98755.72;4997466;28;20062;-68
2022/09/16 00:51:42;;;;;;;1.65;1.48;;;;;;;16.53;73.89;98752.50;4997746;28;20038;-68
2022/09/16 00:54:12;;;;;;;1.52;1.20;;;;;;;16.44;74.58;98755.38;4997228;28;20053;-68
2022/09/16 00:56:43;;;;;;;0.47;0.47;;;;;;;16.37;74.71;98761.66;4997353;28;20057;-68
2022/09/16 00:59:18;;;;;;;1.05;0.95;;;;;;;16.30;74.86;98770.53;4997486;28;20058;-69
2022/09/16 01:01:48;;;;;;;0.70;0.70;;;;;;;16.21;75.40;98770.88;4997433;28;20057;-68
2022/09/16 01:04:22;;;;;;;0.77;0.77;;;;;;;16.16;75.54;98773.63;4997329;28;20121;-68
2022/09/16 01:06:51;;;;;;;0.70;0.70;;;;;;;16.12;75.70;98782.38;4997483;28;20121;-68
2022/09/16 01:09:22;;;;;;;;;;;;;;;16.09;75.84;98783.31;4997429;28;20590;-67
2022/09/16 01:11:50;;;;;;;0.50;0.50;;;;;;;16.04;75.97;98794.69;4997596;28;20383;-68
2022/09/16 01:17:11;;;;;;;0.68;0.68;;;;;;;15.87;76.86;98797.88;4995573;28;20488;-68
2022/09/16 01:19:59;;;;;;;0.60;0.60;;;;;;;15.81;77.27;98798.06;4996888;28;20051;-68
2022/09/16 01:22:46;;;;;;;0.60;0.60;;;;;;;15.78;77.26;98792.22;4995717;28;20057;-68
2022/09/16 01:25:31;;;;;;;0.88;0.88;;;;;;;15.71;77.43;98796.75;4996712;28;20065;-68
2022/09/16 01:28:26;;;;;;;1.52;0.93;;;;;;;15.63;77.96;98793.59;4996994;28;20397;-69
2022/09/16 01:31:12;;;;;;;0.90;0.90;;;;;;;15.50;78.32;98797.47;4996921;28;20388;-68
2022/09/16 01:33:52;;;;;;;1.20;1.10;;;;;;;15.37;78.63;98785.91;4996581;28;20054;-68
2022/09/16 01:36:31;;;;;;;1.50;1.38;;;;;;;15.26;79.13;98796.56;4996458;28;20104;-68
2022/09/16 01:39:09;;;;;;;1.15;1.05;;;;;;;15.19;79.47;98796.81;4996821;28;20101;-67
2022/09/16 01:41:46;;;;;;;0.73;0.73;;;;;;;15.13;79.53;98794.47;4996473;28;20046;-68
2022/09/16 01:44:25;;;;;;;1.30;1.20;;;;;;;15.10;79.97;98787.69;4996591;28;20042;-68
2022/09/16 01:47:02;;;;;;;1.33;0.95;;;;;;;15.12;80.63;98779.91;4996262;28;20082;-68
2022/09/16 01:49:42;;;;;;;0.85;0.85;;;;;;;15.13;80.31;98773.91;4996614;28;20050;-68
2022/09/16 01:52:23;;;;;;;1.13;1.02;;;;;;;15.15;80.45;98779.81;4996344;28;20050;-68
2022/09/16 01:55:01;;;;;;;2.70;0.98;;;;;;;15.06;80.46;98769.84;4996173;28;20042;-68
2022/09/16 01:57:34;;;;;;;2.25;1.27;;;;;;;14.99;80.84;98778.66;4996250;28;20046;-68
2022/09/16 02:00:07;;;;;;;1.45;1.35;;;;;;;14.94;81.07;98775.41;4996119;28;20050;-68
2022/09/16 02:02:42;;;;;;;0.60;0.60;;;;;;;14.86;81.02;98788.50;4996111;28;20061;-68
2022/09/16 02:05:16;;;;;;;2.50;1.30;;;;;;;14.78;81.17;98796.44;4996371;28;20097;-68
2022/09/16 02:08:00;;;;;;;0.50;0.50;;;;;;;14.73;81.41;98782.91;4995950;28;20050;-68
2022/09/16 02:10:32;;;;;;;0.80;0.75;;;;;;;14.69;81.55;98783.91;4996242;28;20404;-68
2022/09/16 02:13:08;;;;;;;0.95;0.90;;;;;;;14.74;81.91;98778.59;4995893;28;20073;-68
2022/09/16 02:15:42;;;;;;;3.42;1.88;;;;;;;14.78;81.92;98793.88;4996089;28;20069;-67
2022/09/16 02:18:16;;;;;;;0.95;0.85;;;;;;;14.72;81.55;98795.81;4995713;28;20050;-68
2022/09/16 02:20:48;;;;;;;0.95;0.85;;;;;;;14.57;81.85;98798.84;4995914;28;20051;-68
2022/09/16 02:23:22;;;;;;;1.52;0.80;;;;;;;14.40;81.47;98799.34;4995696;28;20043;-68
2022/09/16 02:25:55;;;;;;;0.50;0.50;;;;;;;14.30;81.72;98797.94;4995954;28;20046;-68
2022/09/16 02:28:27;;;;;;;2.42;1.50;;;;;;;14.20;81.57;98806.78;4995157;28;20133;-68
2022/09/16 02:31:00;;;;;;;1.42;1.33;;;;;;;14.13;81.38;98805.28;4995538;28;20077;-68
2022/09/16 02:33:33;;;;;;;0.70;0.70;;;;;;;14.09;81.46;98798.56;4996091;28;20069;-68
2022/09/16 02:36:04;;;;;;;1.23;1.13;;;;;;;14.06;82.05;98802.03;4995465;28;20134;-69
2022/09/16 02:38:39;;;;;;;2.13;1.58;;;;;;;13.98;81.94;98803.16;4995682;28;20134;-69
2022/09/16 02:41:13;;;;;;;0.70;0.70;;;;;;;13.93;82.24;98797.31;4995391;28;20046;-69
2022/09/16 02:43:42;;;;;;;6.70;3.13;;;;;;;13.96;82.06;98786.97;4997028;28;20053;-68
2022/09/16 02:46:19;;;;;;;0.70;0.70;;;;;;;13.87;82.56;98798.31;4995039;28;20138;-69
2022/09/16 02:48:58;;;;;;;0.95;0.95;;;;;;;13.84;82.70;98797.59;4995306;28;20069;-68
2022/09/16 02:51:38;;;;;;;1.00;0.90;;;;;;;13.77;82.67;98796.88;4995113;28;20052;-68
2022/09/16 02:54:14;;;;;;;1.17;1.02;;;;;;;13.86;83.48;98799.22;4995124;28;20558;-68
2022/09/16 02:56:43;;;;;;;1.33;1.15;;;;;;;13.89;83.47;98798.28;4994971;28;20061;-68
2022/09/16 02:59:13;;;;;;;0.73;0.73;;;;;;;13.85;83.38;98796.69;4995005;28;20064;-68
2022/09/16 03:01:45;;;;;;;0.60;0.60;;;;;;;13.76;83.64;98799.50;4995262;28;20096;-68
2022/09/16 03:04:18;;;;;;;1.88;1.17;;;;;;;13.77;83.44;98796.06;4994998;28;20055;-68
2022/09/16 03:06:48;;;;;;;2.42;0.93;;;;;;;13.74;83.63;98798.72;4995487;28;20476;-68
2022/09/16 03:09:22;;;;;;;1.05;0.95;;;;;;;13.69;83.62;98803.13;4994687;28;20043;-68
2022/09/16 03:12:13;;;;;;;1.52;1.33;;;;;;;13.74;83.54;98801.28;4995104;28;20485;-68
2022/09/16 03:15:11;;;;;;;1.13;1.02;;;;;;;13.70;83.97;98799.69;4994720;28;20100;-68
2022/09/16 03:18:04;;;;;;;0.40;0.40;;;;;;;13.66;83.76;98798.91;4994633;28;20041;-69
2022/09/16 03:20:45;;;;;;;1.55;1.02;;;;;;;13.67;83.79;98795.47;4994475;28;20608;-68
2022/09/16 03:23:24;;;;;;;1.60;1.50;;;;;;;13.65;84.04;98788.72;4994594;28;20047;-68
2022/09/16 03:25:59;;;;;;;0.50;0.50;;;;;;;13.65;84.49;98801.53;4994645;28;20054;-68
2022/09/16 03:28:37;;;;;;;1.60;1.13;;;;;;;13.63;84.35;98793.06;4994878;28;20052;-68
2022/09/16 03:31:10;;;;;;;3.10;1.15;;;;;;;13.58;84.13;98787.22;4994374;28;20054;-68
2022/09/16 03:33:46;;;;;;;1.05;0.95;;;;;;;13.49;84.29;98790.00;4994465;28;20070;-68
2022/09/16 03:36:23;;;;;;;3.05;1.50;;;;;;;13.51;84.44;98788.25;4994340;28;20057;-67
2022/09/16 03:38:53;;;;;;;1.30;1.00;;;;;;;13.56;84.96;98791.50;4994722;28;20038;-68
2022/09/16 03:41:23;;;;;;;4.05;1.98;;;;;;;13.51;84.60;98788.25;4994160;28;20448;-68
2022/09/16 03:43:56;;;;;;;2.35;1.35;;;;;;;13.49;85.04;98800.25;4994289;28;20052;-68
2022/09/16 03:46:31;;;;;;;2.25;0.82;;;;;;;13.50;84.65;98797.66;4994292;28;20062;-68
2022/09/16 03:49:00;;;;;;;1.13;1.02;;;;;;;13.39;84.50;98799.66;4994220;28;20050;-68
2022/09/16 03:51:30;;;;;;;1.02;1.00;;;;;;;13.32;84.59;98810.94;4994418;28;20129;-68
2022/09/16 03:53:59;;;;;;;1.52;1.42;;;;;;;13.31;84.77;98807.56;4994497;28;20046;-68
2022/09/16 03:56:27;;;;;;;0.43;0.43;;;;;;;13.23;84.98;98803.50;4994299;28;20141;-68
2022/09/16 03:58:57;;;;;;;0.70;0.70;;;;;;;13.23;84.96;98804.34;4994489;28;20113;-69
2022/09/16 04:01:25;;;;;;;1.00;0.90;;;;;;;13.19;84.58;98810.44;4994034;28;20493;-67
2022/09/16 04:03:54;;;;;;;0.70;0.70;;;;;;;13.09;84.34;98796.16;4994102;28;20081;-68
2022/09/16 04:06:23;;;;;;;0.67;0.67;;;;;;;13.05;84.57;98809.88;4994683;28;20042;-68
2022/09/16 04:08:53;;;;;;;1.17;1.00;;;;;;;13.01;84.52;98813.41;4994055;28;20508;-68
2022/09/16 04:11:22;;;;;;;1.80;1.10;;;;;;;12.99;84.71;98804.91;4994388;28;20057;-67
2022/09/16 04:13:50;;;;;;;0.50;0.50;;;;;;;13.01;84.82;98803.16;4994040;28;20042;-68
2022/09/16 04:16:20;;;;;;;1.50;1.40;;;;;;;13.05;84.91;98812.44;4993886;28;20125;-68
2022/09/16 04:18:49;;;;;;;;;;;;;;;12.95;85.25;98808.44;4994666;28;20050;-67
2022/09/16 04:21:18;;;;;;;1.05;0.80;;;;;;;12.92;85.03;98812.78;4994708;28;20379;-67
2022/09/16 04:23:47;;;;;;;0.90;0.90;;;;;;;12.85;84.93;98814.66;4994250;28;20038;-66
2022/09/16 04:26:17;;;;;;;0.37;0.37;;;;;;;12.70;84.44;98810.75;4994247;28;20120;-66
2022/09/16 04:28:46;;;;;;;1.25;1.15;;;;;;;12.60;84.61;98810.97;4993886;28;20081;-67
2022/09/16 04:31:16;;;;;;;1.77;1.10;;;;;;;12.56;84.76;98809.38;4993815;28;20050;-66
2022/09/16 04:33:44;;;;;;;2.55;1.58;;;;;;;12.50;84.59;98810.34;4993887;28;20050;-67
2022/09/16 04:36:18;;;;;;;1.13;0.93;;;;;;;12.48;84.89;98812.09;4994121;28;20034;-68
2022/09/16 04:38:49;;;;;;;1.08;1.00;;;;;;;12.49;85.06;98818.91;4993853;28;20050;-67
2022/09/16 04:41:21;;;;;;;1.23;0.98;;;;;;;12.42;84.68;98821.63;4993783;28;20050;-67
2022/09/16 04:43:52;;;;;;;0.95;0.90;;;;;;;12.39;84.88;98816.56;4993953;28;20087;-67
2022/09/16 04:46:21;;;;;;;1.15;1.05;;;;;;;12.47;85.29;98822.38;4993728;28;20488;-67
2022/09/16 04:48:52;;;;;;;0.93;0.85;;;;;;;12.53;85.37;98814.53;4995467;28;20042;-66
2022/09/16 04:51:22;;;;;;;1.85;1.13;;;;;;;12.65;86.01;98819.38;4995116;28;20054;-67
2022/09/16 04:53:51;;;;;;;0.40;0.40;;;;;;;12.79;86.07;98812.22;4997414;28;20042;-67
2022/09/16 04:56:24;;;;;;;0.57;0.57;;;;;;;13.02;86.20;98820.22;4997465;28;20050;-67
2022/09/16 04:58:54;;;;;;;0.75;0.73;;;;;;;13.24;86.30;98829.09;4997298;28;20050;-67
2022/09/16 05:01:25;;;;;;;0.77;0.77;;;;;;;13.44;86.25;98831.97;4997509;28;20046;-67
2022/09/16 05:03:57;;;;;;;1.48;1.17;;;;;;;13.64;86.93;98846.00;4997356;28;20065;-67
2022/09/16 05:06:28;;;;;;;1.05;1.02;;;;;;;13.82;87.00;98840.41;4997405;28;20076;-67
2022/09/16 05:08:57;;;;;;;3.83;2.47;;;;;;;13.93;86.89;98839.22;4997358;28;20050;-67
2022/09/16 05:11:29;;;;;;;2.70;1.48;;;;;;;14.08;87.22;98843.06;4996994;28;20049;-67
2022/09/16 05:14:03;;;;;;;1.00;0.90;;;;;;;14.20;87.24;98832.47;4996916;28;20047;-67
2022/09/16 05:16:32;;;;;;;1.48;0.77;;;;;;;14.30;87.17;98827.91;4997093;28;20241;-66
2022/09/16 05:19:03;;;;;;;1.63;1.45;;;;;;;14.38;86.54;98831.94;4996891;28;20516;-67
2022/09/16 05:21:35;;;;;;;2.30;0.80;;;;;;;14.43;86.57;98824.09;4997199;28;20050;-67
2022/09/16 05:24:07;;;;;;;2.55;1.42;;;;;;;14.52;86.72;98816.09;4997044;28;20093;-67
2022/09/16 05:26:40;;;;;;;3.17;2.13;;;;;;;14.57;86.60;98812.53;4997902;28;20409;-69
2022/09/16 05:29:12;;;;;;;1.95;1.50;;;;;;;14.70;86.36;98803.56;5016199;28;20050;-67
2022/09/16 05:31:43;;;;;;;1.00;0.90;;;;;;;14.83;86.56;98804.00;5016495;28;20381;-66
2022/09/16 05:34:14;;;;;;;1.30;1.20;;;;;;;14.93;85.96;98809.69;5016408;28;20455;-66
2022/09/16 05:36:46;;;;;;;1.17;1.08;;;;;;;15.02;85.76;98811.97;5016051;28;20519;-68
2022/09/16 05:39:16;;;;;;;2.45;1.90;;;;;;;15.09;85.64;98816.03;5016145;28;20519;-67
2022/09/16 05:41:57;;;;;;;1.35;1.25;;;;;;;15.21;85.62;98810.47;5016402;28;20456;-66
2022/09/16 05:44:26;;;;;;;1.67;1.58;;;;;;;15.32;85.39;98810.94;5016338;28;20076;-67
2022/09/16 05:46:55;;;;;;;1.65;1.42;;;;;;;15.47;85.01;98802.75;5016300;28;20507;-66
2022/09/16 05:49:24;;;;;;;0.60;0.60;;;;;;;15.59;84.60;98817.75;5015885;28;20038;-67
2022/09/16 05:51:53;;;;;;;1.42;1.17;;;;;;;15.70;83.74;98810.50;5015869;28;20041;-68
2022/09/16 05:54:23;;;;;;;3.67;1.35;;;;;;;15.81;83.21;98813.50;5015724;28;20050;-67
2022/09/16 05:56:52;;;;;;;2.15;1.23;;;;;;;15.91;82.47;98814.88;5016051;28;20080;-67
2022/09/16 05:59:23;;;;;;;0.93;0.93;;;;;;;16.05;81.51;98812.63;5016046;28;20038;-66
2022/09/16 06:01:52;;;;;;;1.40;1.30;;;;;;;16.15;80.93;98804.59;5015936;28;20046;-67
2022/09/16 06:04:21;;;;;;;1.25;1.05;;;;;;;16.23;80.18;98798.25;4998087;28;20053;-66
2022/09/16 06:06:50;;;;;;;1.00;0.90;;;;;;;16.35;78.60;98799.50;5015919;28;20041;-66
2022/09/16 06:09:20;;;;;;;1.27;1.00;;;;;;;16.45;77.56;98795.69;5015453;28;20042;-66
2022/09/16 06:11:52;;;;;;;6.50;0.65;;;;;;;16.55;75.83;98804.78;5015527;28;20042;-68
2022/09/16 06:14:30;;;;;;;0.25;0.25;;;;;;;16.64;74.16;98813.00;5015548;28;20134;-68
2022/09/16 06:16:59;;;;;;;1.20;0.90;;;;;;;16.78;73.26;98809.88;5015554;28;20042;-67
2022/09/16 06:19:28;;;;;;;0.65;0.65;;;;;;;16.87;72.37;98808.69;5015431;28;20045;-67
2022/09/16 06:21:56;;;;;;;0.70;0.70;;;;;;;16.93;71.12;98804.09;5015479;28;20408;-68
2022/09/16 06:24:25;;;;;;;0.60;0.60;;;;;;;16.98;70.94;98815.06;5015219;28;20042;-67
2022/09/16 06:26:54;;;;;;;1.10;1.00;;;;;;;17.06;70.58;98805.25;5015438;28;20129;-67
2022/09/16 06:29:22;;;;;;;1.30;1.20;;;;;;;17.13;69.69;98803.28;4997676;28;20129;-68
2022/09/16 06:31:52;;;;;;;0.60;0.60;;;;;;;17.19;68.99;98803.88;5015117;28;20041;-67
2022/09/16 06:34:21;;;;;;;0.95;0.88;;;;;;;17.28;68.31;98811.22;5014891;28;20056;-68
2022/09/16 06:36:49;;;;;;;0.60;0.60;;;;;;;17.39;68.38;98809.06;5015200;28;20078;-66
2022/09/16 06:39:18;;;;;;;0.90;0.80;;;;;;;17.44;67.97;98814.81;5015246;28;20064;-66
2022/09/16 06:41:47;;;;;;;0.60;0.60;;;;;;;17.48;67.94;98806.97;5015226;28;20044;-67
2022/09/16 06:44:15;;;;;;;0.60;0.60;;;;;;;17.48;67.96;98807.81;5014782;28;20702;-66
2022/09/16 06:46:44;;;;;;;1.42;0.70;;;;;;;17.58;67.74;98808.28;5014851;28;20504;-66
2022/09/16 06:49:14;;;;;;;0.73;0.73;;;;;;;17.65;67.43;98809.69;5015081;28;20415;-67
2022/09/16 06:51:42;;;;;;;0.57;0.57;;;;;;;17.69;66.61;98811.22;4997620;28;20077;-68
2022/09/16 06:54:11;;;;;;;0.73;0.60;;;;;;;17.72;66.10;98813.69;5006451;28;20034;-68
2022/09/16 06:56:40;;;;;;;1.05;0.98;;;;;;;17.74;65.71;98811.88;4996066;28;20125;-67
2022/09/16 06:59:10;;;;;;;0.80;0.80;;;;;;;17.77;65.57;98809.16;4994863;28;20492;-67
2022/09/16 07:01:38;;;;;;;0.68;0.68;;;;;;;17.84;64.95;98815.72;4995104;28;20132;-66
2022/09/16 07:04:12;;;;;;;0.60;0.60;;;;;;;17.95;64.64;98818.66;4988410;28;20421;-67
2022/09/16 07:06:42;;;;;;;8.02;1.27;;;;;;;18.03;65.23;98832.09;4999610;28;20399;-68
2022/09/16 07:09:31;;;;;;;1.10;1.00;;;;;;;18.08;64.06;98835.31;5014500;28;20500;-65
2022/09/16 07:12:00;;;;;;;0.50;0.50;;;;;;;18.02;63.39;98831.25;5014271;28;20129;-67
2022/09/16 07:14:31;;;;;;;0.57;0.57;;;;;;;18.11;63.42;98824.00;5014589;28;20050;-67
2022/09/16 07:17:00;;;;;;;0.82;0.77;;;;;;;18.21;63.37;98828.66;5014605;28;20068;-66
2022/09/16 07:19:29;;;;;;;0.82;0.80;;;;;;;18.29;62.73;98834.34;5014418;28;20063;-66
2022/09/16 07:21:59;;;;;;;0.68;0.68;;;;;;;18.30;62.78;98833.44;5015103;28;20077;-68
2022/09/16 07:24:27;;;;;;;0.68;0.60;;;;;;;18.21;62.93;98836.41;5014406;28;20556;-67
2022/09/16 07:26:56;;;;;;;0.40;0.40;;;;;;;18.16;63.46;98825.47;5014151;28;20038;-67
2022/09/16 07:29:25;;;;;;;0.88;0.73;;;;;;;18.32;64.40;98823.88;4996439;28;20048;-68
2022/09/16 07:31:55;;;;;;;;;;;;;;;18.33;64.04;98829.88;5014624;28;20045;-67
2022/09/16 07:34:23;;;;;;;0.45;0.45;;;;;;;18.28;63.38;98822.34;5014026;28;20024;-68
2022/09/16 07:36:52;;;;;;;8.30;0.93;;;;;;;18.53;63.74;98822.91;5011010;28;20124;-66
2022/09/16 07:39:24;;;;;;;0.40;0.40;;;;;;;18.62;62.39;98832.81;5013922;28;20423;-68
2022/09/16 07:41:53;;;;;;;0.55;0.55;;;;;;;18.57;61.76;98829.59;5013961;28;20060;-68
2022/09/16 07:44:21;;;;;;;0.70;0.70;;;;;;;18.56;61.25;98838.28;5013900;28;20138;-68
2022/09/16 07:46:50;;;;;;;0.50;0.50;;;;;;;18.65;61.18;98837.84;5013906;28;20050;-68
2022/09/16 07:49:19;;;;;;;0.60;0.60;;;;;;;18.73;60.75;98830.56;5013897;28;20066;-68
2022/09/16 07:51:48;;;;;;;0.70;0.70;;;;;;;18.41;59.60;98840.69;5013683;28;20104;-68
2022/09/16 07:54:20;;;;;;;0.70;0.70;;;;;;;18.27;59.36;98841.31;4986039;28;20133;-67
2022/09/16 07:56:50;;;;;;;0.73;0.73;;;;;;;18.16;59.20;98835.81;5011584;28;20152;-68
2022/09/16 07:59:20;;;;;;;0.82;0.82;;;;;;;18.28;59.20;98832.69;5013975;28;20080;-67
2022/09/16 08:01:50;;;;;;;0.63;0.63;;;;;;;18.47;59.87;98838.72;4996761;28;20050;-66
2022/09/16 08:04:19;;;;;;;1.20;1.10;;;;;;;18.43;59.82;98837.13;4994451;28;20532;-67
2022/09/16 08:06:48;;;;;;;0.50;0.50;;;;;;;18.57;60.00;98832.19;5007115;28;20050;-67
2022/09/16 08:09:17;;;;;;;0.50;0.50;;;;;;;18.73;60.17;98824.56;4996134;28;20073;-68
2022/09/16 08:12:09;;;;;;;0.40;0.40;;;;;;;18.86;59.45;98819.66;4996315;28;20039;-67
2022/09/16 08:14:39;;;;;;;0.40;0.40;;;;;;;18.97;59.21;98812.19;4993990;28;20057;-66
2022/09/16 08:17:07;;;;;;;0.60;0.60;;;;;;;19.02;58.87;98818.00;4994147;28;20145;-67
2022/09/16 08:19:38;;;;;;;0.65;0.65;;;;;;;19.02;58.82;98813.66;4977176;28;20506;-68
2022/09/16 08:22:06;;;;;;;0.40;0.40;;;;;;;19.15;59.02;98826.81;4994012;28;20465;-68
2022/09/16 08:24:35;;;;;;;0.50;0.50;;;;;;;19.23;58.67;98820.38;4994250;28;20047;-68
2022/09/16 08:27:04;;;;;;;1.95;1.15;;;;;;;19.21;58.50;98821.34;4996608;28;20054;-67
2022/09/16 08:29:34;;;;;;;;;;;;;;;19.27;58.69;98821.88;4998145;28;20046;-68
2022/09/16 08:32:03;;;;;;;;;;;;;;;19.38;58.43;98832.59;4997780;28;20367;-69
2022/09/16 08:34:31;;;;;;;0.57;0.57;;;;;;;19.32;58.86;98821.66;4987346;28;19928;-67
2022/09/16 08:37:00;;;;;;;0.50;0.50;;;;;;;19.36;59.61;98820.63;4997883;28;20034;-68
2022/09/16 08:39:28;;;;;;;0.50;0.50;;;;;;;19.38;59.72;98824.81;4997541;28;20050;-69
2022/09/16 08:42:19;;;;;;;2.90;0.95;;;;;;;19.40;59.95;98827.31;4997701;28;20039;-66
2022/09/16 08:45:03;;;;;;;0.68;0.65;;;;;;;19.46;59.95;98826.19;4997752;28;20097;-68
2022/09/16 08:47:42;;;;;;;0.98;0.90;;;;;;;19.41;60.13;98829.00;4997447;28;20101;-67
2022/09/16 08:50:17;;;;;;;0.90;0.80;;;;;;;19.52;59.45;98829.28;4996544;28;20105;-67
2022/09/16 08:52:47;;;;;;;0.57;0.57;;;;;;;19.65;59.79;98832.91;4995477;28;20053;-67
2022/09/16 08:55:22;;;;;;;1.00;0.93;;;;;;;19.69;59.70;98831.88;4992980;28;20050;-67
2022/09/16 08:57:57;;;;;;;0.43;0.43;;;;;;;19.74;59.82;98829.03;4997532;28;20046;-68
2022/09/16 09:00:29;;;;;;;0.73;0.68;;;;;;;19.74;59.44;98824.72;4997565;28;20058;-67
2022/09/16 09:03:07;;;;;;;0.85;0.82;;;;;;;19.75;59.02;98818.59;4997677;28;20050;-67
2022/09/16 09:05:45;;;;;;;0.57;0.57;;;;;;;19.67;59.20;98809.56;5000858;28;20121;-68
2022/09/16 09:08:28;;;;;;;0.85;0.80;;;;;;;19.77;58.85;98813.34;4990410;28;20050;-67
2022/09/16 09:11:03;;;;;;;0.30;0.30;;;;;;;19.92;58.07;98815.97;5000406;28;20052;-67
2022/09/16 09:13:43;;;;;;;0.47;0.47;;;;;;;20.19;58.19;98812.81;4997465;28;20113;-68
2022/09/16 09:16:25;;;;;;;1.25;1.15;;;;;;;20.48;57.23;98809.53;4984131;28;20114;-67
2022/09/16 09:19:06;;;;;;;1.40;1.30;;;;;;;20.71;55.39;98814.28;4997102;28;20129;-67
2022/09/16 09:21:43;;;;;;;0.40;0.40;;;;;;;20.90;54.37;98814.09;4997315;28;20408;-67
2022/09/16 09:24:30;;;;;;;0.82;0.55;;;;;;;21.11;53.35;98811.16;4996793;28;20053;-67
2022/09/16 09:27:04;;;;;;;0.65;0.65;;;;;;;21.11;52.84;98802.53;4997125;28;20050;-67
2022/09/16 09:29:47;;;;;;;0.77;0.40;;;;;;;21.03;52.57;98802.94;4996779;28;20133;-68
2022/09/16 09:32:27;;;;;;;0.52;0.52;;;;;;;21.02;52.55;98806.44;4997229;28;20070;-67
2022/09/16 09:35:18;;;;;;;0.50;0.50;;;;;;;21.09;52.38;98794.81;4990555;28;20464;-68
2022/09/16 09:38:34;;;;;;;0.47;0.47;;;;;;;21.28;53.12;98798.03;4978048;28;20038;-68
2022/09/16 09:41:09;;;;;;;0.60;0.60;;;;;;;21.57;53.41;98792.91;4988910;28;20041;-67
2022/09/16 09:43:45;;;;;;;0.73;0.73;;;;;;;21.60;53.46;98803.09;4993436;28;20046;-67
2022/09/16 09:46:22;;;;;;;0.50;0.50;;;;;;;21.71;52.65;98809.34;4977065;28;20051;-68
2022/09/16 09:48:57;;;;;;;0.40;0.40;;;;;;;21.82;51.95;98808.66;4976872;28;20577;-68
2022/09/16 09:51:32;;;;;;;0.52;0.52;;;;;;;21.97;52.12;98812.97;4977153;28;20124;-68
2022/09/16 09:54:10;;;;;;;1.33;1.23;;;;;;;22.07;51.36;98802.88;4976845;28;20042;-67
2022/09/16 09:56:44;;;;;;;0.50;0.50;;;;;;;22.02;50.90;98805.75;4976841;28;20043;-67
2022/09/16 09:59:28;;;;;;;0.88;0.88;;;;;;;21.91;51.01;98802.94;4976954;28;20049;-68
2022/09/16 10:02:00;;;;;;;0.70;0.70;;;;;;;21.86;51.34;98795.44;4976672;28;20114;-68
2022/09/16 10:04:37;;;;;;;0.68;0.65;;;;;;;21.74;51.26;98801.34;4976695;28;20051;-68
2022/09/16 10:07:06;;;;;;;1.55;0.93;;;;;;;21.46;51.61;98795.28;4975460;28;20062;-68
2022/09/16 10:09:36;;;;;;;;;;;;;;;21.31;52.45;98804.78;4977013;28;20054;-68
2022/09/16 10:12:05;;;;;;;0.60;0.60;;;;;;;21.14;53.02;98810.97;4976479;28;19922;-67
2022/09/16 10:14:36;;;;;;;0.53;0.53;;;;;;;21.08;53.74;98815.69;4976697;28;20116;-67
2022/09/16 10:17:14;;;;;;;0.77;0.77;;;;;;;21.01;54.41;98815.16;4976650;28;20304;-67
2022/09/16 10:19:54;;;;;;;0.75;0.60;;;;;;;20.98;54.59;98820.53;4976484;28;20188;-67
2022/09/16 10:22:26;;;;;;;0.50;0.50;;;;;;;20.97;54.19;98818.84;4976417;28;20054;-67
2022/09/16 10:24:57;;;;;;;0.50;0.50;;;;;;;20.93;53.93;98812.16;4976598;28;20493;-68
2022/09/16 10:27:28;;;;;;;0.60;0.60;;;;;;;20.94;53.99;98813.84;4959247;28;20085;-68
2022/09/16 10:30:11;;;;;;;1.55;0.95;;;;;;;20.90;54.68;98809.72;4976185;28;20057;-67
2022/09/16 10:32:52;;;;;;;0.63;0.63;;;;;;;20.86;54.70;98810.00;4976169;28;20126;-68
2022/09/16 10:35:25;;;;;;;0.65;0.65;;;;;;;20.77;54.73;98803.59;4976431;28;20500;-67
2022/09/16 10:37:57;;;;;;;0.60;0.60;;;;;;;20.58;54.26;98805.53;4975926;28;20043;-68
2022/09/16 10:40:26;;;;;;;0.52;0.52;;;;;;;20.40;54.24;98806.50;4975678;28;20043;-68
2022/09/16 10:43:02;;;;;;;0.70;0.70;;;;;;;20.27;53.83;98810.72;4976116;28;20445;-68
2022/09/16 10:45:34;;;;;;;0.40;0.40;;;;;;;20.20;54.36;98804.16;4976083;28;20114;-67
2022/09/16 10:48:12;;;;;;;0.50;0.50;;;;;;;20.14;54.43;98800.13;4975684;28;20047;-67
2022/09/16 10:50:53;;;;;;;0.50;0.50;;;;;;;20.15;54.92;98795.78;4976225;28;20055;-67
2022/09/16 10:53:29;;;;;;;0.47;0.47;;;;;;;20.15;55.25;98795.78;4987139;28;20134;-68
2022/09/16 10:56:00;;;;;;;0.77;0.73;;;;;;;20.13;54.95;98805.41;4975732;28;20054;-67
2022/09/16 10:58:29;;;;;;;0.40;0.40;;;;;;;20.13;54.93;98808.00;4958403;28;20038;-67
2022/09/16 11:01:21;;;;;;;1.20;0.70;;;;;;;20.11;55.17;98809.84;4975526;28;20043;-68
2022/09/16 11:04:13;;;;;;;1.30;0.68;;;;;;;20.03;55.39;98813.63;4975618;28;20129;-67
2022/09/16 11:07:01;;;;;;;0.40;0.40;;;;;;;19.91;55.08;98813.47;4975485;28;20055;-67
2022/09/16 11:09:36;;;;;;;0.68;0.68;;;;;;;19.74;55.06;98810.91;4974685;28;20046;-68
2022/09/16 11:12:27;;;;;;;0.52;0.52;;;;;;;19.64;55.51;98817.47;4975321;28;20133;-68
2022/09/16 11:15:07;;;;;;;0.52;0.52;;;;;;;19.56;55.78;98815.28;4975674;28;20378;-67
2022/09/16 11:17:44;;;;;;;;;;;;;;;19.55;55.90;98811.03;4975717;28;20138;-67
2022/09/16 11:20:34;;;;;;;0.50;0.50;;;;;;;19.54;56.06;98804.16;4975484;28;19981;-68
2022/09/16 11:23:13;;;;;;;0.40;0.40;;;;;;;19.59;56.47;98802.19;4975303;28;20078;-67
2022/09/16 11:25:51;;;;;;;0.50;0.50;;;;;;;19.65;56.81;98801.84;4975579;28;20117;-67
2022/09/16 11:28:53;;;;;;;0.73;0.73;;;;;;;19.69;56.51;98802.53;4975876;28;20074;-67
2022/09/16 11:31:34;;;;;;;0.60;0.60;;;;;;;19.68;56.91;98811.22;4975162;28;20070;-67
2022/09/16 11:34:16;;;;;;;0.73;0.73;;;;;;;19.73;57.06;98810.06;4979485;28;20501;-67
2022/09/16 11:36:56;;;;;;;0.75;0.63;;;;;;;19.69;56.99;98800.81;4975305;28;20047;-67
2022/09/16 11:39:40;;;;;;;0.57;0.57;;;;;;;19.64;57.48;98795.03;4974919;28;20135;-67
2022/09/16 11:42:18;;;;;;;0.50;0.50;;;;;;;19.59;57.62;98791.81;4975178;28;20129;-68
2022/09/16 11:44:52;;;;;;;0.40;0.40;;;;;;;19.62;57.63;98791.69;4975265;28;20114;-67
2022/09/16 11:47:44;;;;;;;0.50;0.50;;;;;;;19.62;57.67;98789.09;4974734;28;20058;-68
2022/09/16 11:50:29;;;;;;;0.70;0.70;;;;;;;19.53;57.54;98792.13;4974934;28;20070;-67
2022/09/16 11:53:18;;;;;;;0.40;0.40;;;;;;;19.47;57.54;98796.78;4974854;28;20493;-67
2022/09/16 11:55:57;;;;;;;0.95;0.88;;;;;;;19.40;57.58;98785.91;4974730;28;20097;-67
2022/09/16 11:58:34;;;;;;;0.75;0.75;;;;;;;19.31;57.80;98770.81;4974862;28;20051;-67
2022/09/16 12:01:13;;;;;;;1.65;1.20;;;;;;;19.23;58.42;98778.97;4973943;28;20489;-68
2022/09/16 12:03:48;;;;;;;1.50;0.80;;;;;;;19.21;59.06;98785.13;4974538;28;20056;-67
2022/09/16 12:06:22;;;;;;;2.47;1.02;;;;;;;19.21;59.46;98780.81;5006739;28;20045;-67
2022/09/16 12:08:57;;;;;;;0.30;0.30;;;;;;;19.25;59.73;98781.47;5014014;28;20137;-67